sensor_id;sensor_type;location;lat;lon;timestamp;P1;durP1;ratioP1;P2;durP2;ratioP2
1467;SDS011;727;48.892;9.544;2022-12-07T00:01:23;13.43;;;11.05;;
1467;SDS011;727;48.892;9.544;2022-12-07T00:03:52;13.45;;;12.05;;
1467;SDS011;727;48.892;9.544;2022-12-07T00:06:34;11.93;;;10.63;;
1467;SDS011;727;48.892;9.544;2022-12-07T00:09:02;15.13;;;12.98;;
1467;SDS011;727;48.892;9.544;2022-12-07T00:11:30;16.42;;;13.43;;
1467;SDS011;727;48.892;9.544;2022-12-07T00:13:58;15.90;;;11.73;;
1467;SDS011;727;48.892;9.544;2022-12-07T00:16:27;13.95;;;11.95;;
1467;SDS011;727;48.892;9.544;2022-12-07T00:18:54;14.93;;;11.90;;
1467;SDS011;727;48.892;9.544;2022-12-07T00:21:23;13.73;;;12.23;;
1467;SDS011;727;48.892;9.544;2022-12-07T00:23:52;15.32;;;11.88;;
1467;SDS011;727;48.892;9.544;2022-12-07T00:26:21;16.88;;;12.85;;
1467;SDS011;727;48.892;9.544;2022-12-07T00:28:49;14.27;;;12.75;;
1467;SDS011;727;48.892;9.544;2022-12-07T00:31:18;14.27;;;12.02;;
1467;SDS011;727;48.892;9.544;2022-12-07T00:33:46;16.60;;;13.02;;
1467;SDS011;727;48.892;9.544;2022-12-07T00:36:15;17.25;;;13.85;;
1467;SDS011;727;48.892;9.544;2022-12-07T00:38:43;20.80;;;14.52;;
1467;SDS011;727;48.892;9.544;2022-12-07T00:41:11;13.15;;;11.05;;
1467;SDS011;727;48.892;9.544;2022-12-07T00:43:39;14.63;;;12.20;;
1467;SDS011;727;48.892;9.544;2022-12-07T00:46:06;18.23;;;14.30;;
1467;SDS011;727;48.892;9.544;2022-12-07T00:48:33;16.90;;;13.85;;
1467;SDS011;727;48.892;9.544;2022-12-07T00:51:01;16.08;;;13.55;;
1467;SDS011;727;48.892;9.544;2022-12-07T00:53:29;18.52;;;15.85;;
1467;SDS011;727;48.892;9.544;2022-12-07T00:55:57;16.13;;;13.10;;
1467;SDS011;727;48.892;9.544;2022-12-07T00:58:23;14.90;;;12.95;;
1467;SDS011;727;48.892;9.544;2022-12-07T01:00:50;18.98;;;14.40;;
1467;SDS011;727;48.892;9.544;2022-12-07T01:03:17;17.10;;;14.45;;
1467;SDS011;727;48.892;9.544;2022-12-07T01:05:50;16.75;;;14.82;;
1467;SDS011;727;48.892;9.544;2022-12-07T01:08:17;15.82;;;12.88;;
1467;SDS011;727;48.892;9.544;2022-12-07T01:10:46;20.23;;;15.68;;
1467;SDS011;727;48.892;9.544;2022-12-07T01:13:13;16.88;;;14.30;;
1467;SDS011;727;48.892;9.544;2022-12-07T01:15:41;17.13;;;12.98;;
1467;SDS011;727;48.892;9.544;2022-12-07T01:18:08;19.40;;;13.90;;
1467;SDS011;727;48.892;9.544;2022-12-07T01:20:35;22.90;;;13.48;;
1467;SDS011;727;48.892;9.544;2022-12-07T01:23:03;17.05;;;13.50;;
1467;SDS011;727;48.892;9.544;2022-12-07T01:25:29;16.23;;;13.70;;
1467;SDS011;727;48.892;9.544;2022-12-07T01:27:58;16.20;;;12.60;;
1467;SDS011;727;48.892;9.544;2022-12-07T01:30:24;16.58;;;13.93;;
1467;SDS011;727;48.892;9.544;2022-12-07T01:32:51;18.52;;;12.77;;
1467;SDS011;727;48.892;9.544;2022-12-07T01:35:18;15.85;;;13.85;;
1467;SDS011;727;48.892;9.544;2022-12-07T01:37:45;17.50;;;13.52;;
1467;SDS011;727;48.892;9.544;2022-12-07T01:40:11;17.77;;;13.27;;
1467;SDS011;727;48.892;9.544;2022-12-07T01:42:38;16.25;;;13.10;;
1467;SDS011;727;48.892;9.544;2022-12-07T01:48:03;15.00;;;12.48;;
1467;SDS011;727;48.892;9.544;2022-12-07T01:50:31;18.25;;;13.35;;
1467;SDS011;727;48.892;9.544;2022-12-07T01:52:58;15.50;;;12.63;;
1467;SDS011;727;48.892;9.544;2022-12-07T01:55:27;18.50;;;14.43;;
1467;SDS011;727;48.892;9.544;2022-12-07T01:57:55;18.05;;;12.55;;
1467;SDS011;727;48.892;9.544;2022-12-07T02:00:22;16.70;;;12.15;;
1467;SDS011;727;48.892;9.544;2022-12-07T02:02:52;17.10;;;13.63;;
1467;SDS011;727;48.892;9.544;2022-12-07T02:05:21;13.93;;;11.90;;
1467;SDS011;727;48.892;9.544;2022-12-07T02:07:52;19.17;;;14.10;;
1467;SDS011;727;48.892;9.544;2022-12-07T02:10:22;16.67;;;13.25;;
1467;SDS011;727;48.892;9.544;2022-12-07T02:12:55;17.77;;;12.75;;
1467;SDS011;727;48.892;9.544;2022-12-07T02:15:26;18.27;;;13.02;;
1467;SDS011;727;48.892;9.544;2022-12-07T02:18:07;13.75;;;11.68;;
1467;SDS011;727;48.892;9.544;2022-12-07T02:20:38;16.90;;;13.90;;
1467;SDS011;727;48.892;9.544;2022-12-07T02:23:17;14.90;;;12.23;;
1467;SDS011;727;48.892;9.544;2022-12-07T02:26:25;18.23;;;12.88;;
1467;SDS011;727;48.892;9.544;2022-12-07T02:29:19;17.02;;;14.13;;
1467;SDS011;727;48.892;9.544;2022-12-07T02:31:51;20.67;;;14.52;;
1467;SDS011;727;48.892;9.544;2022-12-07T02:34:26;16.10;;;13.05;;
1467;SDS011;727;48.892;9.544;2022-12-07T02:37:00;18.52;;;12.35;;
1467;SDS011;727;48.892;9.544;2022-12-07T02:39:31;17.45;;;12.98;;
1467;SDS011;727;48.892;9.544;2022-12-07T02:42:05;15.35;;;11.57;;
1467;SDS011;727;48.892;9.544;2022-12-07T02:44:40;14.27;;;12.10;;
1467;SDS011;727;48.892;9.544;2022-12-07T02:47:09;17.42;;;12.95;;
1467;SDS011;727;48.892;9.544;2022-12-07T02:49:38;15.95;;;12.93;;
1467;SDS011;727;48.892;9.544;2022-12-07T02:52:06;16.60;;;12.05;;
1467;SDS011;727;48.892;9.544;2022-12-07T02:54:32;16.95;;;12.65;;
1467;SDS011;727;48.892;9.544;2022-12-07T02:57:00;14.63;;;11.98;;
1467;SDS011;727;48.892;9.544;2022-12-07T02:59:44;14.95;;;12.38;;
1467;SDS011;727;48.892;9.544;2022-12-07T03:02:20;17.15;;;11.85;;
1467;SDS011;727;48.892;9.544;2022-12-07T03:04:54;16.63;;;11.15;;
1467;SDS011;727;48.892;9.544;2022-12-07T03:07:37;17.23;;;12.23;;
1467;SDS011;727;48.892;9.544;2022-12-07T03:10:09;19.17;;;13.07;;
1467;SDS011;727;48.892;9.544;2022-12-07T03:12:48;16.70;;;12.15;;
1467;SDS011;727;48.892;9.544;2022-12-07T03:15:24;19.90;;;12.57;;
1467;SDS011;727;48.892;9.544;2022-12-07T03:17:55;17.10;;;12.27;;
1467;SDS011;727;48.892;9.544;2022-12-07T03:20:23;18.27;;;12.52;;
1467;SDS011;727;48.892;9.544;2022-12-07T03:22:52;19.75;;;11.57;;
1467;SDS011;727;48.892;9.544;2022-12-07T03:25:22;14.80;;;11.73;;
1467;SDS011;727;48.892;9.544;2022-12-07T03:27:51;17.50;;;13.25;;
1467;SDS011;727;48.892;9.544;2022-12-07T03:30:21;15.68;;;11.27;;
1467;SDS011;727;48.892;9.544;2022-12-07T03:32:54;17.35;;;12.18;;
1467;SDS011;727;48.892;9.544;2022-12-07T03:35:28;17.10;;;11.70;;
1467;SDS011;727;48.892;9.544;2022-12-07T03:37:59;17.60;;;12.60;;
1467;SDS011;727;48.892;9.544;2022-12-07T03:40:32;18.27;;;13.90;;
1467;SDS011;727;48.892;9.544;2022-12-07T03:43:03;17.17;;;11.98;;
1467;SDS011;727;48.892;9.544;2022-12-07T03:45:37;18.20;;;12.25;;
1467;SDS011;727;48.892;9.544;2022-12-07T03:48:07;14.75;;;11.90;;
1467;SDS011;727;48.892;9.544;2022-12-07T03:50:38;19.33;;;12.40;;
1467;SDS011;727;48.892;9.544;2022-12-07T03:53:11;15.10;;;12.57;;
1467;SDS011;727;48.892;9.544;2022-12-07T03:55:44;18.92;;;13.13;;
1467;SDS011;727;48.892;9.544;2022-12-07T03:58:18;17.60;;;12.70;;
1467;SDS011;727;48.892;9.544;2022-12-07T04:00:49;17.00;;;12.68;;
1467;SDS011;727;48.892;9.544;2022-12-07T04:03:16;17.83;;;12.77;;
1467;SDS011;727;48.892;9.544;2022-12-07T04:05:43;19.92;;;13.55;;
1467;SDS011;727;48.892;9.544;2022-12-07T04:08:10;18.52;;;13.07;;
1467;SDS011;727;48.892;9.544;2022-12-07T04:10:37;17.83;;;13.00;;
1467;SDS011;727;48.892;9.544;2022-12-07T04:13:04;18.25;;;13.23;;
1467;SDS011;727;48.892;9.544;2022-12-07T04:15:31;21.63;;;13.80;;
1467;SDS011;727;48.892;9.544;2022-12-07T04:17:59;17.50;;;11.85;;
1467;SDS011;727;48.892;9.544;2022-12-07T04:20:25;19.95;;;13.60;;
1467;SDS011;727;48.892;9.544;2022-12-07T04:22:52;18.80;;;12.70;;
1467;SDS011;727;48.892;9.544;2022-12-07T04:25:19;17.40;;;12.30;;
1467;SDS011;727;48.892;9.544;2022-12-07T04:27:46;19.98;;;13.95;;
1467;SDS011;727;48.892;9.544;2022-12-07T04:30:12;16.08;;;12.40;;
1467;SDS011;727;48.892;9.544;2022-12-07T04:32:39;19.00;;;13.40;;
1467;SDS011;727;48.892;9.544;2022-12-07T04:35:08;19.70;;;12.63;;
1467;SDS011;727;48.892;9.544;2022-12-07T04:37:35;22.95;;;13.50;;
1467;SDS011;727;48.892;9.544;2022-12-07T04:40:04;20.98;;;14.48;;
1467;SDS011;727;48.892;9.544;2022-12-07T04:42:32;19.00;;;14.43;;
1467;SDS011;727;48.892;9.544;2022-12-07T04:44:59;20.52;;;14.93;;
1467;SDS011;727;48.892;9.544;2022-12-07T04:47:25;17.15;;;12.98;;
1467;SDS011;727;48.892;9.544;2022-12-07T04:49:52;19.73;;;13.77;;
1467;SDS011;727;48.892;9.544;2022-12-07T04:52:20;19.48;;;13.40;;
1467;SDS011;727;48.892;9.544;2022-12-07T04:54:47;18.13;;;12.98;;
1467;SDS011;727;48.892;9.544;2022-12-07T04:57:13;18.42;;;12.30;;
1467;SDS011;727;48.892;9.544;2022-12-07T04:59:40;18.05;;;12.25;;
1467;SDS011;727;48.892;9.544;2022-12-07T05:02:07;18.48;;;12.95;;
1467;SDS011;727;48.892;9.544;2022-12-07T05:04:33;20.15;;;14.43;;
1467;SDS011;727;48.892;9.544;2022-12-07T05:07:00;20.05;;;14.88;;
1467;SDS011;727;48.892;9.544;2022-12-07T05:09:28;20.30;;;14.15;;
1467;SDS011;727;48.892;9.544;2022-12-07T05:11:55;19.63;;;13.20;;
1467;SDS011;727;48.892;9.544;2022-12-07T05:14:22;18.58;;;13.90;;
1467;SDS011;727;48.892;9.544;2022-12-07T05:16:49;17.35;;;13.07;;
1467;SDS011;727;48.892;9.544;2022-12-07T05:19:18;20.55;;;13.80;;
1467;SDS011;727;48.892;9.544;2022-12-07T05:21:45;18.67;;;13.10;;
1467;SDS011;727;48.892;9.544;2022-12-07T05:24:13;18.30;;;14.10;;
1467;SDS011;727;48.892;9.544;2022-12-07T05:26:42;14.20;;;11.25;;
1467;SDS011;727;48.892;9.544;2022-12-07T05:29:11;15.15;;;12.43;;
1467;SDS011;727;48.892;9.544;2022-12-07T05:31:38;17.27;;;12.73;;
1467;SDS011;727;48.892;9.544;2022-12-07T05:34:05;17.10;;;12.15;;
1467;SDS011;727;48.892;9.544;2022-12-07T05:36:32;22.65;;;15.93;;
1467;SDS011;727;48.892;9.544;2022-12-07T05:38:59;20.98;;;14.82;;
1467;SDS011;727;48.892;9.544;2022-12-07T05:41:25;22.15;;;14.63;;
1467;SDS011;727;48.892;9.544;2022-12-07T05:44:11;20.13;;;14.55;;
1467;SDS011;727;48.892;9.544;2022-12-07T05:46:38;17.73;;;13.90;;
1467;SDS011;727;48.892;9.544;2022-12-07T05:49:05;16.33;;;12.63;;
1467;SDS011;727;48.892;9.544;2022-12-07T05:51:31;19.63;;;14.77;;
1467;SDS011;727;48.892;9.544;2022-12-07T05:53:58;17.52;;;13.45;;
1467;SDS011;727;48.892;9.544;2022-12-07T05:56:25;19.17;;;13.10;;
1467;SDS011;727;48.892;9.544;2022-12-07T05:58:52;18.40;;;14.77;;
1467;SDS011;727;48.892;9.544;2022-12-07T06:01:38;23.98;;;15.77;;
1467;SDS011;727;48.892;9.544;2022-12-07T06:04:05;19.52;;;14.40;;
1467;SDS011;727;48.892;9.544;2022-12-07T06:06:31;27.55;;;16.50;;
1467;SDS011;727;48.892;9.544;2022-12-07T06:08:58;28.50;;;15.75;;
1467;SDS011;727;48.892;9.544;2022-12-07T06:11:25;31.23;;;17.30;;
1467;SDS011;727;48.892;9.544;2022-12-07T06:14:09;26.88;;;18.13;;
1467;SDS011;727;48.892;9.544;2022-12-07T06:16:36;33.03;;;16.05;;
1467;SDS011;727;48.892;9.544;2022-12-07T06:19:04;21.65;;;15.80;;
1467;SDS011;727;48.892;9.544;2022-12-07T06:21:31;23.30;;;17.80;;
1467;SDS011;727;48.892;9.544;2022-12-07T06:23:58;20.55;;;17.02;;
1467;SDS011;727;48.892;9.544;2022-12-07T06:26:24;23.77;;;17.88;;
1467;SDS011;727;48.892;9.544;2022-12-07T06:28:51;23.40;;;16.92;;
1467;SDS011;727;48.892;9.544;2022-12-07T06:31:18;23.73;;;17.63;;
1467;SDS011;727;48.892;9.544;2022-12-07T06:33:45;18.08;;;14.93;;
1467;SDS011;727;48.892;9.544;2022-12-07T06:36:13;20.10;;;15.43;;
1467;SDS011;727;48.892;9.544;2022-12-07T06:38:39;23.98;;;13.55;;
1467;SDS011;727;48.892;9.544;2022-12-07T06:41:06;18.83;;;15.95;;
1467;SDS011;727;48.892;9.544;2022-12-07T06:43:33;23.45;;;16.40;;
1467;SDS011;727;48.892;9.544;2022-12-07T06:46:00;25.60;;;16.85;;
1467;SDS011;727;48.892;9.544;2022-12-07T06:48:27;22.65;;;14.88;;
1467;SDS011;727;48.892;9.544;2022-12-07T06:50:53;23.17;;;16.00;;
1467;SDS011;727;48.892;9.544;2022-12-07T06:53:22;19.23;;;13.40;;
1467;SDS011;727;48.892;9.544;2022-12-07T06:55:49;20.55;;;15.00;;
1467;SDS011;727;48.892;9.544;2022-12-07T06:58:16;27.08;;;15.32;;
1467;SDS011;727;48.892;9.544;2022-12-07T07:00:43;17.75;;;12.85;;
1467;SDS011;727;48.892;9.544;2022-12-07T07:03:09;25.63;;;16.63;;
1467;SDS011;727;48.892;9.544;2022-12-07T07:05:36;19.65;;;15.40;;
1467;SDS011;727;48.892;9.544;2022-12-07T07:08:03;28.67;;;18.75;;
1467;SDS011;727;48.892;9.544;2022-12-07T07:10:31;26.08;;;15.40;;
1467;SDS011;727;48.892;9.544;2022-12-07T07:12:58;25.17;;;16.63;;
1467;SDS011;727;48.892;9.544;2022-12-07T07:15:25;23.20;;;15.15;;
1467;SDS011;727;48.892;9.544;2022-12-07T07:17:52;18.58;;;14.65;;
1467;SDS011;727;48.892;9.544;2022-12-07T07:20:19;21.25;;;15.02;;
1467;SDS011;727;48.892;9.544;2022-12-07T07:22:46;24.83;;;14.80;;
1467;SDS011;727;48.892;9.544;2022-12-07T07:25:12;18.35;;;14.65;;
1467;SDS011;727;48.892;9.544;2022-12-07T07:27:40;17.98;;;13.98;;
1467;SDS011;727;48.892;9.544;2022-12-07T07:30:08;26.63;;;15.73;;
1467;SDS011;727;48.892;9.544;2022-12-07T07:32:35;19.58;;;14.40;;
1467;SDS011;727;48.892;9.544;2022-12-07T07:35:02;20.38;;;14.68;;
1467;SDS011;727;48.892;9.544;2022-12-07T07:37:29;19.95;;;14.57;;
1467;SDS011;727;48.892;9.544;2022-12-07T07:39:56;19.27;;;14.18;;
1467;SDS011;727;48.892;9.544;2022-12-07T07:42:22;21.30;;;14.63;;
1467;SDS011;727;48.892;9.544;2022-12-07T07:44:50;18.52;;;14.68;;
1467;SDS011;727;48.892;9.544;2022-12-07T07:47:17;19.27;;;14.77;;
1467;SDS011;727;48.892;9.544;2022-12-07T07:49:44;24.85;;;14.05;;
1467;SDS011;727;48.892;9.544;2022-12-07T07:52:10;22.23;;;16.40;;
1467;SDS011;727;48.892;9.544;2022-12-07T07:54:37;34.38;;;18.20;;
1467;SDS011;727;48.892;9.544;2022-12-07T07:57:04;26.38;;;17.27;;
1467;SDS011;727;48.892;9.544;2022-12-07T07:59:30;32.90;;;16.60;;
1467;SDS011;727;48.892;9.544;2022-12-07T08:01:58;25.52;;;17.20;;
1467;SDS011;727;48.892;9.544;2022-12-07T08:04:25;41.20;;;18.30;;
1467;SDS011;727;48.892;9.544;2022-12-07T08:06:52;25.13;;;16.25;;
1467;SDS011;727;48.892;9.544;2022-12-07T08:09:19;26.15;;;17.98;;
1467;SDS011;727;48.892;9.544;2022-12-07T08:11:45;22.73;;;16.20;;
1467;SDS011;727;48.892;9.544;2022-12-07T08:14:12;25.67;;;18.38;;
1467;SDS011;727;48.892;9.544;2022-12-07T08:16:39;25.48;;;17.83;;
1467;SDS011;727;48.892;9.544;2022-12-07T08:19:07;23.42;;;17.40;;
1467;SDS011;727;48.892;9.544;2022-12-07T08:21:33;29.58;;;19.83;;
1467;SDS011;727;48.892;9.544;2022-12-07T08:24:00;34.63;;;20.95;;
1467;SDS011;727;48.892;9.544;2022-12-07T08:26:27;29.02;;;19.48;;
1467;SDS011;727;48.892;9.544;2022-12-07T08:28:53;29.88;;;19.83;;
1467;SDS011;727;48.892;9.544;2022-12-07T08:31:20;31.75;;;20.05;;
1467;SDS011;727;48.892;9.544;2022-12-07T08:33:47;29.52;;;19.48;;
1467;SDS011;727;48.892;9.544;2022-12-07T08:36:16;28.65;;;19.85;;
1467;SDS011;727;48.892;9.544;2022-12-07T08:38:43;25.30;;;17.92;;
1467;SDS011;727;48.892;9.544;2022-12-07T08:41:10;21.60;;;18.05;;
1467;SDS011;727;48.892;9.544;2022-12-07T08:43:38;24.67;;;15.77;;
1467;SDS011;727;48.892;9.544;2022-12-07T08:46:06;23.08;;;15.73;;
1467;SDS011;727;48.892;9.544;2022-12-07T08:48:37;23.40;;;16.65;;
1467;SDS011;727;48.892;9.544;2022-12-07T08:51:08;23.52;;;15.50;;
1467;SDS011;727;48.892;9.544;2022-12-07T08:53:37;30.17;;;15.30;;
1467;SDS011;727;48.892;9.544;2022-12-07T08:56:05;22.25;;;15.40;;
1467;SDS011;727;48.892;9.544;2022-12-07T08:58:33;30.17;;;16.83;;
1467;SDS011;727;48.892;9.544;2022-12-07T09:01:02;24.13;;;14.88;;
1467;SDS011;727;48.892;9.544;2022-12-07T09:03:29;17.75;;;14.77;;
1467;SDS011;727;48.892;9.544;2022-12-07T09:05:56;18.00;;;13.75;;
1467;SDS011;727;48.892;9.544;2022-12-07T09:08:26;19.13;;;12.48;;
1467;SDS011;727;48.892;9.544;2022-12-07T09:10:57;19.40;;;13.95;;
1467;SDS011;727;48.892;9.544;2022-12-07T09:13:23;17.70;;;13.40;;
1467;SDS011;727;48.892;9.544;2022-12-07T09:15:51;24.80;;;15.85;;
1467;SDS011;727;48.892;9.544;2022-12-07T09:18:17;19.38;;;11.95;;
1467;SDS011;727;48.892;9.544;2022-12-07T09:20:44;20.48;;;13.60;;
1467;SDS011;727;48.892;9.544;2022-12-07T09:23:11;18.60;;;13.50;;
1467;SDS011;727;48.892;9.544;2022-12-07T09:25:38;20.92;;;13.00;;
1467;SDS011;727;48.892;9.544;2022-12-07T09:28:06;14.43;;;11.15;;
1467;SDS011;727;48.892;9.544;2022-12-07T09:30:33;15.07;;;11.90;;
1467;SDS011;727;48.892;9.544;2022-12-07T09:33:00;19.70;;;12.57;;
1467;SDS011;727;48.892;9.544;2022-12-07T09:35:27;15.30;;;10.55;;
1467;SDS011;727;48.892;9.544;2022-12-07T09:37:54;15.30;;;10.43;;
1467;SDS011;727;48.892;9.544;2022-12-07T09:40:21;14.27;;;9.75;;
1467;SDS011;727;48.892;9.544;2022-12-07T09:42:51;26.83;;;12.38;;
1467;SDS011;727;48.892;9.544;2022-12-07T09:45:21;23.23;;;11.80;;
1467;SDS011;727;48.892;9.544;2022-12-07T09:47:49;12.23;;;10.18;;
1467;SDS011;727;48.892;9.544;2022-12-07T09:50:17;17.55;;;11.50;;
1467;SDS011;727;48.892;9.544;2022-12-07T09:52:47;16.75;;;12.55;;
1467;SDS011;727;48.892;9.544;2022-12-07T09:55:16;19.75;;;13.10;;
1467;SDS011;727;48.892;9.544;2022-12-07T09:57:49;23.90;;;10.60;;
1467;SDS011;727;48.892;9.544;2022-12-07T10:00:17;15.55;;;10.77;;
1467;SDS011;727;48.892;9.544;2022-12-07T10:02:50;20.83;;;12.10;;
1467;SDS011;727;48.892;9.544;2022-12-07T10:05:23;60.03;;;17.48;;
1467;SDS011;727;48.892;9.544;2022-12-07T10:07:53;47.22;;;13.88;;
1467;SDS011;727;48.892;9.544;2022-12-07T10:10:22;14.32;;;10.32;;
1467;SDS011;727;48.892;9.544;2022-12-07T10:12:58;17.05;;;11.10;;
1467;SDS011;727;48.892;9.544;2022-12-07T10:15:42;11.70;;;8.70;;
1467;SDS011;727;48.892;9.544;2022-12-07T10:18:26;30.88;;;13.38;;
1467;SDS011;727;48.892;9.544;2022-12-07T10:21:02;12.25;;;8.50;;
1467;SDS011;727;48.892;9.544;2022-12-07T10:23:38;10.40;;;7.93;;
1467;SDS011;727;48.892;9.544;2022-12-07T10:29:12;11.05;;;9.10;;
1467;SDS011;727;48.892;9.544;2022-12-07T10:31:42;12.68;;;7.03;;
1467;SDS011;727;48.892;9.544;2022-12-07T10:34:20;13.52;;;7.05;;
1467;SDS011;727;48.892;9.544;2022-12-07T10:36:49;19.10;;;8.13;;
1467;SDS011;727;48.892;9.544;2022-12-07T10:39:17;13.10;;;8.60;;
1467;SDS011;727;48.892;9.544;2022-12-07T10:41:54;17.25;;;10.30;;
1467;SDS011;727;48.892;9.544;2022-12-07T10:44:23;22.60;;;11.50;;
1467;SDS011;727;48.892;9.544;2022-12-07T10:47:11;17.08;;;9.85;;
1467;SDS011;727;48.892;9.544;2022-12-07T10:50:15;12.40;;;7.80;;
1467;SDS011;727;48.892;9.544;2022-12-07T10:52:57;19.73;;;10.15;;
1467;SDS011;727;48.892;9.544;2022-12-07T10:55:40;11.07;;;7.40;;
1467;SDS011;727;48.892;9.544;2022-12-07T10:58:25;8.05;;;6.80;;
1467;SDS011;727;48.892;9.544;2022-12-07T11:01:09;8.25;;;6.80;;
1467;SDS011;727;48.892;9.544;2022-12-07T11:03:53;10.63;;;7.13;;
1467;SDS011;727;48.892;9.544;2022-12-07T11:06:34;23.85;;;7.90;;
1467;SDS011;727;48.892;9.544;2022-12-07T11:09:19;10.40;;;7.97;;
1467;SDS011;727;48.892;9.544;2022-12-07T11:12:15;20.73;;;8.95;;
1467;SDS011;727;48.892;9.544;2022-12-07T11:14:52;10.90;;;7.53;;
1467;SDS011;727;48.892;9.544;2022-12-07T11:17:26;8.75;;;6.68;;
1467;SDS011;727;48.892;9.544;2022-12-07T11:20:02;12.23;;;6.65;;
1467;SDS011;727;48.892;9.544;2022-12-07T11:22:44;9.45;;;6.90;;
1467;SDS011;727;48.892;9.544;2022-12-07T11:25:19;23.48;;;10.27;;
1467;SDS011;727;48.892;9.544;2022-12-07T11:27:56;13.52;;;8.00;;
1467;SDS011;727;48.892;9.544;2022-12-07T11:30:38;19.90;;;8.25;;
1467;SDS011;727;48.892;9.544;2022-12-07T11:33:15;18.35;;;9.15;;
1467;SDS011;727;48.892;9.544;2022-12-07T11:35:51;10.57;;;8.40;;
1467;SDS011;727;48.892;9.544;2022-12-07T11:38:30;29.30;;;10.38;;
1467;SDS011;727;48.892;9.544;2022-12-07T11:41:03;16.92;;;8.00;;
1467;SDS011;727;48.892;9.544;2022-12-07T11:43:46;11.38;;;7.85;;
1467;SDS011;727;48.892;9.544;2022-12-07T11:46:19;24.40;;;8.77;;
1467;SDS011;727;48.892;9.544;2022-12-07T11:48:52;12.13;;;8.10;;
1467;SDS011;727;48.892;9.544;2022-12-07T11:51:27;20.48;;;8.07;;
1467;SDS011;727;48.892;9.544;2022-12-07T11:53:58;9.55;;;5.78;;
1467;SDS011;727;48.892;9.544;2022-12-07T11:56:35;22.15;;;9.57;;
1467;SDS011;727;48.892;9.544;2022-12-07T11:59:04;15.18;;;7.28;;
1467;SDS011;727;48.892;9.544;2022-12-07T12:01:41;10.57;;;6.43;;
1467;SDS011;727;48.892;9.544;2022-12-07T12:04:17;11.73;;;6.32;;
1467;SDS011;727;48.892;9.544;2022-12-07T12:06:51;18.88;;;6.60;;
1467;SDS011;727;48.892;9.544;2022-12-07T12:09:21;12.55;;;7.63;;
1467;SDS011;727;48.892;9.544;2022-12-07T12:11:56;24.83;;;7.18;;
1467;SDS011;727;48.892;9.544;2022-12-07T12:14:39;16.48;;;8.00;;
1467;SDS011;727;48.892;9.544;2022-12-07T12:17:18;18.02;;;9.85;;
1467;SDS011;727;48.892;9.544;2022-12-07T12:20:03;11.70;;;6.13;;
1467;SDS011;727;48.892;9.544;2022-12-07T12:22:40;15.85;;;8.20;;
1467;SDS011;727;48.892;9.544;2022-12-07T12:25:15;13.02;;;7.30;;
1467;SDS011;727;48.892;9.544;2022-12-07T12:27:47;10.93;;;7.90;;
1467;SDS011;727;48.892;9.544;2022-12-07T12:33:12;8.52;;;7.00;;
1467;SDS011;727;48.892;9.544;2022-12-07T12:35:41;13.18;;;8.52;;
1467;SDS011;727;48.892;9.544;2022-12-07T12:38:28;15.88;;;8.23;;
1467;SDS011;727;48.892;9.544;2022-12-07T12:40:59;13.32;;;9.38;;
1467;SDS011;727;48.892;9.544;2022-12-07T12:43:40;16.55;;;9.23;;
1467;SDS011;727;48.892;9.544;2022-12-07T12:49:35;12.80;;;8.95;;
1467;SDS011;727;48.892;9.544;2022-12-07T12:55:15;19.00;;;8.98;;
1467;SDS011;727;48.892;9.544;2022-12-07T12:57:47;18.80;;;9.35;;
1467;SDS011;727;48.892;9.544;2022-12-07T13:00:39;8.57;;;7.25;;
1467;SDS011;727;48.892;9.544;2022-12-07T13:03:26;11.20;;;7.00;;
1467;SDS011;727;48.892;9.544;2022-12-07T13:08:45;9.23;;;6.47;;
1467;SDS011;727;48.892;9.544;2022-12-07T13:11:16;10.85;;;8.13;;
1467;SDS011;727;48.892;9.544;2022-12-07T13:13:46;13.43;;;8.25;;
1467;SDS011;727;48.892;9.544;2022-12-07T13:25:11;13.35;;;9.07;;
1467;SDS011;727;48.892;9.544;2022-12-07T13:27:47;17.27;;;10.10;;
1467;SDS011;727;48.892;9.544;2022-12-07T13:30:20;13.60;;;11.20;;
1467;SDS011;727;48.892;9.544;2022-12-07T13:32:51;12.80;;;9.90;;
1467;SDS011;727;48.892;9.544;2022-12-07T13:35:29;16.00;;;9.93;;
1467;SDS011;727;48.892;9.544;2022-12-07T13:37:57;11.07;;;9.82;;
1467;SDS011;727;48.892;9.544;2022-12-07T13:40:27;20.73;;;9.57;;
1467;SDS011;727;48.892;9.544;2022-12-07T13:42:57;14.02;;;8.07;;
1467;SDS011;727;48.892;9.544;2022-12-07T13:45:27;12.10;;;9.40;;
1467;SDS011;727;48.892;9.544;2022-12-07T13:48:14;17.08;;;10.82;;
1467;SDS011;727;48.892;9.544;2022-12-07T13:50:51;14.25;;;9.27;;
1467;SDS011;727;48.892;9.544;2022-12-07T13:53:19;23.27;;;11.23;;
1467;SDS011;727;48.892;9.544;2022-12-07T13:55:47;17.17;;;11.52;;
1467;SDS011;727;48.892;9.544;2022-12-07T13:58:14;15.00;;;10.13;;
1467;SDS011;727;48.892;9.544;2022-12-07T14:00:42;18.77;;;11.23;;
1467;SDS011;727;48.892;9.544;2022-12-07T14:03:25;31.63;;;10.90;;
1467;SDS011;727;48.892;9.544;2022-12-07T14:06:06;15.73;;;12.07;;
1467;SDS011;727;48.892;9.544;2022-12-07T14:08:39;12.57;;;9.90;;
1467;SDS011;727;48.892;9.544;2022-12-07T14:11:06;23.33;;;12.50;;
1467;SDS011;727;48.892;9.544;2022-12-07T14:13:39;30.50;;;15.13;;
1467;SDS011;727;48.892;9.544;2022-12-07T14:16:19;17.13;;;11.05;;
1467;SDS011;727;48.892;9.544;2022-12-07T14:18:50;11.45;;;9.15;;
1467;SDS011;727;48.892;9.544;2022-12-07T14:21:18;10.93;;;9.55;;
1467;SDS011;727;48.892;9.544;2022-12-07T14:24:02;18.45;;;10.98;;
1467;SDS011;727;48.892;9.544;2022-12-07T14:26:35;18.08;;;10.38;;
1467;SDS011;727;48.892;9.544;2022-12-07T14:29:18;37.45;;;12.02;;
1467;SDS011;727;48.892;9.544;2022-12-07T14:31:49;23.52;;;9.90;;
1467;SDS011;727;48.892;9.544;2022-12-07T14:34:15;15.18;;;10.95;;
1467;SDS011;727;48.892;9.544;2022-12-07T14:36:42;16.77;;;11.55;;
1467;SDS011;727;48.892;9.544;2022-12-07T14:39:09;37.15;;;11.35;;
1467;SDS011;727;48.892;9.544;2022-12-07T14:41:36;13.88;;;9.60;;
1467;SDS011;727;48.892;9.544;2022-12-07T14:44:17;16.50;;;10.07;;
1467;SDS011;727;48.892;9.544;2022-12-07T14:46:45;18.70;;;10.13;;
1467;SDS011;727;48.892;9.544;2022-12-07T14:49:14;13.10;;;9.80;;
1467;SDS011;727;48.892;9.544;2022-12-07T14:51:41;13.63;;;9.35;;
1467;SDS011;727;48.892;9.544;2022-12-07T14:54:11;16.08;;;10.15;;
1467;SDS011;727;48.892;9.544;2022-12-07T14:56:41;12.43;;;9.15;;
1467;SDS011;727;48.892;9.544;2022-12-07T14:59:08;13.32;;;9.88;;
1467;SDS011;727;48.892;9.544;2022-12-07T15:01:36;20.33;;;11.32;;
1467;SDS011;727;48.892;9.544;2022-12-07T15:04:03;16.77;;;11.13;;
1467;SDS011;727;48.892;9.544;2022-12-07T15:06:31;19.90;;;12.90;;
1467;SDS011;727;48.892;9.544;2022-12-07T15:08:58;29.45;;;13.50;;
1467;SDS011;727;48.892;9.544;2022-12-07T15:11:25;17.60;;;10.98;;
1467;SDS011;727;48.892;9.544;2022-12-07T15:13:52;15.98;;;11.20;;
1467;SDS011;727;48.892;9.544;2022-12-07T15:16:34;14.07;;;10.43;;
1467;SDS011;727;48.892;9.544;2022-12-07T15:19:02;15.40;;;10.77;;
1467;SDS011;727;48.892;9.544;2022-12-07T15:21:29;10.98;;;8.80;;
1467;SDS011;727;48.892;9.544;2022-12-07T15:23:57;13.63;;;9.80;;
1467;SDS011;727;48.892;9.544;2022-12-07T15:26:24;15.48;;;10.18;;
1467;SDS011;727;48.892;9.544;2022-12-07T15:28:52;13.57;;;8.85;;
1467;SDS011;727;48.892;9.544;2022-12-07T15:31:18;11.32;;;9.35;;
1467;SDS011;727;48.892;9.544;2022-12-07T15:33:45;12.18;;;9.13;;
1467;SDS011;727;48.892;9.544;2022-12-07T15:36:15;15.05;;;9.45;;
1467;SDS011;727;48.892;9.544;2022-12-07T15:38:45;18.70;;;10.93;;
1467;SDS011;727;48.892;9.544;2022-12-07T15:41:13;14.82;;;11.63;;
1467;SDS011;727;48.892;9.544;2022-12-07T15:43:40;24.80;;;14.20;;
1467;SDS011;727;48.892;9.544;2022-12-07T15:46:28;22.23;;;13.00;;
1467;SDS011;727;48.892;9.544;2022-12-07T15:48:56;28.00;;;13.50;;
1467;SDS011;727;48.892;9.544;2022-12-07T15:51:23;29.17;;;15.23;;
1467;SDS011;727;48.892;9.544;2022-12-07T15:53:50;17.58;;;12.27;;